createdAt,value
2018-05-06T00:01:35.326Z,1.77
2018-05-06T00:04:02.917Z,2.00
2018-05-06T00:06:31.260Z,1.67
2018-05-06T00:08:58.858Z,1.90
2018-05-06T00:11:27.483Z,2.13
2018-05-06T00:13:55.054Z,1.80
2018-05-06T00:16:22.633Z,1.70
2018-05-06T00:18:50.235Z,1.80
2018-05-06T00:21:17.784Z,1.43
2018-05-06T00:23:46.120Z,1.40
2018-05-06T00:26:13.935Z,1.67
2018-05-06T00:28:41.517Z,1.80
2018-05-06T00:31:09.072Z,1.70
2018-05-06T00:33:36.807Z,1.70
2018-05-06T00:36:05.163Z,1.60
2018-05-06T00:38:32.720Z,1.50
2018-05-06T00:41:00.320Z,1.60
2018-05-06T00:43:27.884Z,1.53
2018-05-06T00:45:55.493Z,1.60
2018-05-06T00:48:23.052Z,1.27
2018-05-06T00:50:50.786Z,1.43
2018-05-06T00:53:18.356Z,1.50
2018-05-06T00:55:45.935Z,1.40
2018-05-06T00:58:13.473Z,1.60
2018-05-06T01:00:41.253Z,1.80
2018-05-06T01:03:10.301Z,1.50
2018-05-06T01:05:37.875Z,1.63
2018-05-06T01:08:05.737Z,1.40
2018-05-06T01:10:33.453Z,1.30
2018-05-06T01:13:08.327Z,1.30
2018-05-06T01:15:35.905Z,1.50
2018-05-06T01:18:03.487Z,1.80
2018-05-06T01:20:31.045Z,1.40
2018-05-06T01:22:59.423Z,2.13
2018-05-06T01:25:26.988Z,1.70
2018-05-06T01:27:54.528Z,2.00
2018-05-06T01:30:22.091Z,1.90
2018-05-06T01:32:49.667Z,1.90
2018-05-06T01:35:17.214Z,1.60
2018-05-06T01:37:44.795Z,1.63
2018-05-06T01:40:12.341Z,1.83
2018-05-06T01:42:40.700Z,1.60
2018-05-06T01:45:08.259Z,1.57
2018-05-06T01:47:35.895Z,1.40
2018-05-06T01:50:03.482Z,1.37
2018-05-06T01:52:31.059Z,1.40
2018-05-06T01:54:58.625Z,1.57
2018-05-06T01:57:26.401Z,1.40
2018-05-06T01:59:54.732Z,2.17
2018-05-06T02:02:22.330Z,2.00
2018-05-06T02:04:49.952Z,1.87
2018-05-06T02:07:17.491Z,2.37
2018-05-06T02:09:45.210Z,1.70
2018-05-06T02:12:12.883Z,1.83
2018-05-06T02:14:41.214Z,2.30
2018-05-06T02:17:08.800Z,3.33
2018-05-06T02:19:36.355Z,5.40
2018-05-06T02:22:03.943Z,5.80
2018-05-06T02:24:31.685Z,5.63
2018-05-06T02:26:59.488Z,5.47
2018-05-06T02:29:27.037Z,4.43
2018-05-06T02:31:54.622Z,2.47
2018-05-06T02:34:22.205Z,1.80
2018-05-06T02:36:49.789Z,3.10
2018-05-06T02:39:17.480Z,3.23
2018-05-06T02:41:45.064Z,3.20
2018-05-06T02:44:12.630Z,3.00
2018-05-06T02:46:40.322Z,2.60
2018-05-06T02:49:07.873Z,3.80
2018-05-06T02:51:35.439Z,4.13
2018-05-06T02:54:03.017Z,3.90
2018-05-06T02:56:30.573Z,3.40
2018-05-06T02:58:58.132Z,3.50
2018-05-06T03:01:25.704Z,2.70
2018-05-06T03:03:54.763Z,3.20
2018-05-06T03:06:22.308Z,3.00
2018-05-06T03:08:49.955Z,3.60
2018-05-06T03:11:17.519Z,3.03
2018-05-06T03:13:45.260Z,2.37
2018-05-06T03:16:12.800Z,2.30
2018-05-06T03:18:41.137Z,2.80
2018-05-06T03:21:08.689Z,2.53
2018-05-06T03:23:36.267Z,3.10
2018-05-06T03:26:03.915Z,2.20
2018-05-06T03:28:31.495Z,2.37
2018-05-06T03:30:59.048Z,2.10
2018-05-06T03:33:26.594Z,2.40
2018-05-06T03:35:54.171Z,2.53
2018-05-06T03:38:21.820Z,2.20
2018-05-06T03:40:49.390Z,2.23
2018-05-06T03:43:16.948Z,1.97
2018-05-06T03:45:44.500Z,1.90
2018-05-06T03:48:12.062Z,1.70
2018-05-06T03:50:39.610Z,1.70
2018-05-06T03:53:07.178Z,1.77
2018-05-06T03:55:34.778Z,1.97
2018-05-06T03:58:14.459Z,2.30
2018-05-06T04:00:43.819Z,1.83
2018-05-06T04:03:11.375Z,2.20
2018-05-06T04:05:40.453Z,2.00
2018-05-06T04:08:09.781Z,2.03
2018-05-06T04:10:38.095Z,2.00
2018-05-06T04:13:05.641Z,2.00
2018-05-06T04:15:33.209Z,1.77
2018-05-06T04:18:00.753Z,1.73
2018-05-06T04:20:28.333Z,2.00
2018-05-06T04:22:55.877Z,1.93
2018-05-06T04:25:23.457Z,1.90
2018-05-06T04:27:51.000Z,1.80
2018-05-06T04:30:18.538Z,1.70
2018-05-06T04:32:46.215Z,2.00
2018-05-06T04:35:13.783Z,2.00
2018-05-06T04:37:41.364Z,1.80
2018-05-06T04:40:08.908Z,2.00
2018-05-06T04:42:36.510Z,1.70
2018-05-06T04:45:04.821Z,2.10
2018-05-06T04:47:32.387Z,2.00
2018-05-06T04:50:00.159Z,2.00
2018-05-06T04:52:27.700Z,1.73
2018-05-06T04:54:55.293Z,1.80
2018-05-06T04:57:22.845Z,1.70
2018-05-06T04:59:50.425Z,2.07
2018-05-06T05:02:17.981Z,1.93
2018-05-06T05:04:45.561Z,1.93
2018-05-06T05:07:14.662Z,2.07
2018-05-06T05:09:42.262Z,2.00
2018-05-06T05:12:09.895Z,2.03
2018-05-06T05:14:37.440Z,2.03
2018-05-06T05:17:05.158Z,2.17
2018-05-06T05:19:32.911Z,2.47
2018-05-06T05:22:00.543Z,2.03
2018-05-06T05:24:28.055Z,2.13
2018-05-06T05:26:55.800Z,2.20
2018-05-06T05:29:23.365Z,2.23
2018-05-06T05:31:50.960Z,2.23
2018-05-06T05:34:18.524Z,2.30
2018-05-06T05:36:46.103Z,1.93
2018-05-06T05:39:13.651Z,2.37
2018-05-06T05:41:41.532Z,2.00
2018-05-06T05:44:09.869Z,2.07
2018-05-06T05:46:37.464Z,2.10
2018-05-06T05:49:05.771Z,2.20
2018-05-06T05:51:33.343Z,2.07
2018-05-06T05:54:00.993Z,1.77
2018-05-06T05:56:28.543Z,1.80
2018-05-06T05:58:56.121Z,2.13
2018-05-06T06:01:23.763Z,2.10
2018-05-06T06:03:51.260Z,2.47
2018-05-06T06:06:18.844Z,2.27
2018-05-06T06:08:47.919Z,1.50
2018-05-06T06:11:15.543Z,1.90
2018-05-06T06:13:43.076Z,1.90
2018-05-06T06:16:10.672Z,1.90
2018-05-06T06:18:38.233Z,1.90
2018-05-06T06:21:05.828Z,2.20
2018-05-06T06:23:33.395Z,1.87
2018-05-06T06:26:00.970Z,1.70
2018-05-06T06:28:29.287Z,2.00
2018-05-06T06:30:56.868Z,2.20
2018-05-06T06:33:24.442Z,1.60
2018-05-06T06:35:51.993Z,2.00
2018-05-06T06:38:20.342Z,1.60
2018-05-06T06:40:47.893Z,2.00
2018-05-06T06:43:15.469Z,2.00
2018-05-06T06:45:43.039Z,1.77
2018-05-06T06:48:10.628Z,1.40
2018-05-06T06:50:38.224Z,1.53
2018-05-06T06:53:06.200Z,1.40
2018-05-06T06:55:33.791Z,1.40
2018-05-06T06:58:01.637Z,1.20
2018-05-06T07:00:29.229Z,1.57
2018-05-06T07:02:56.780Z,1.20
2018-05-06T07:05:24.342Z,1.40
2018-05-06T07:07:51.909Z,1.10
2018-05-06T07:10:21.079Z,1.33
2018-05-06T07:12:48.656Z,1.20
2018-05-06T07:15:16.241Z,0.90
2018-05-06T07:17:43.791Z,1.20
2018-05-06T07:20:12.321Z,1.20
2018-05-06T07:22:39.916Z,1.10
2018-05-06T07:25:07.480Z,1.10
2018-05-06T07:27:35.255Z,0.97
2018-05-06T07:30:02.839Z,1.00
2018-05-06T07:32:30.444Z,1.13
2018-05-06T07:34:58.014Z,1.17
2018-05-06T07:37:25.579Z,1.00
2018-05-06T07:39:53.918Z,0.97
2018-05-06T07:42:21.529Z,1.00
2018-05-06T07:44:49.861Z,1.00
2018-05-06T07:47:17.476Z,0.83
2018-05-06T07:49:45.037Z,0.80
2018-05-06T07:52:13.355Z,0.90
2018-05-06T07:54:40.961Z,0.90
2018-05-06T07:57:08.566Z,0.83
2018-05-06T07:59:36.141Z,1.10
2018-05-06T08:02:03.734Z,1.00
2018-05-06T08:04:31.297Z,1.00
2018-05-06T08:06:58.888Z,0.83
2018-05-06T08:09:26.491Z,0.90
2018-05-06T08:11:54.236Z,1.20
2018-05-06T08:14:21.869Z,0.80
2018-05-06T08:16:52.046Z,0.90
2018-05-06T08:19:19.807Z,0.90
2018-05-06T08:21:47.441Z,1.10
2018-05-06T08:24:14.977Z,0.70
2018-05-06T08:26:42.545Z,0.80
2018-05-06T08:29:10.111Z,0.90
2018-05-06T08:31:37.876Z,1.17
2018-05-06T08:34:05.492Z,1.00
2018-05-06T08:36:33.198Z,1.13
2018-05-06T08:39:00.768Z,1.27
2018-05-06T08:41:28.367Z,1.03
2018-05-06T08:43:55.960Z,0.90
2018-05-06T08:46:23.603Z,1.00
2018-05-06T08:48:51.285Z,1.10
2018-05-06T08:51:18.901Z,0.80
2018-05-06T08:53:47.454Z,0.90
2018-05-06T08:56:15.030Z,0.80
2018-05-06T08:58:42.651Z,0.90
2018-05-06T09:01:10.189Z,1.03
2018-05-06T09:03:37.896Z,1.00
2018-05-06T09:06:05.883Z,1.10
2018-05-06T09:08:33.516Z,1.10
2018-05-06T09:11:01.386Z,0.87
2018-05-06T09:13:28.964Z,1.00
2018-05-06T09:15:56.582Z,0.90
2018-05-06T09:18:24.946Z,1.10
2018-05-06T09:20:52.568Z,1.00
2018-05-06T09:23:20.152Z,1.10
2018-05-06T09:25:47.722Z,1.27
2018-05-06T09:28:15.576Z,1.00
2018-05-06T09:30:43.312Z,1.00
2018-05-06T09:33:10.966Z,1.13
2018-05-06T09:35:38.664Z,0.93
2018-05-06T09:38:07.789Z,1.00
2018-05-06T09:40:36.300Z,1.00
2018-05-06T09:43:03.924Z,1.00
2018-05-06T09:45:31.504Z,1.00
2018-05-06T09:47:59.109Z,1.10
2018-05-06T09:50:26.711Z,1.00
2018-05-06T09:52:54.285Z,0.80
2018-05-06T09:55:21.921Z,1.20
2018-05-06T09:57:49.506Z,1.17
2018-05-06T10:00:17.112Z,0.97
2018-05-06T10:02:44.687Z,0.90
2018-05-06T10:05:13.126Z,1.07
2018-05-06T10:07:41.646Z,1.20
2018-05-06T10:10:09.480Z,1.13
2018-05-06T10:12:37.079Z,1.50
2018-05-06T10:15:04.689Z,1.50
2018-05-06T10:17:32.292Z,1.00
2018-05-06T10:20:00.625Z,1.17
2018-05-06T10:22:28.241Z,1.10
2018-05-06T10:24:55.864Z,0.90
2018-05-06T10:27:23.449Z,1.00
2018-05-06T10:29:51.133Z,1.07
2018-05-06T10:32:18.912Z,1.10
2018-05-06T10:34:46.552Z,1.30
2018-05-06T10:37:14.228Z,1.10
2018-05-06T10:39:41.890Z,1.37
2018-05-06T10:42:10.266Z,1.30
2018-05-06T10:44:40.167Z,1.25
2018-05-06T10:47:08.551Z,1.20
2018-05-06T10:49:36.202Z,1.20
2018-05-06T10:52:03.788Z,1.20
2018-05-06T10:54:31.565Z,0.93
2018-05-06T10:56:59.444Z,1.20
2018-05-06T10:59:27.214Z,1.27
2018-05-06T11:01:54.820Z,0.93
2018-05-06T11:04:23.144Z,1.00
2018-05-06T11:06:50.797Z,1.20
2018-05-06T11:09:18.376Z,1.37
2018-05-06T11:11:46.025Z,1.05
2018-05-06T11:14:13.585Z,1.27
2018-05-06T11:16:41.254Z,1.30
2018-05-06T11:19:08.842Z,1.20
2018-05-06T11:21:36.399Z,0.88
2018-05-06T11:24:04.148Z,1.20
2018-05-06T11:26:31.873Z,1.20
2018-05-06T11:28:59.649Z,1.00
2018-05-06T11:31:27.211Z,1.12
2018-05-06T11:33:54.787Z,1.10
2018-05-06T11:36:22.435Z,1.30
2018-05-06T11:38:50.027Z,2.03
2018-05-06T11:41:19.561Z,1.10
2018-05-06T11:43:47.156Z,1.17
2018-05-06T11:46:14.776Z,1.30
2018-05-06T11:48:43.119Z,1.62
2018-05-06T11:51:10.684Z,1.40
2018-05-06T11:53:39.935Z,1.25
2018-05-06T11:56:08.287Z,1.08
2018-05-06T11:58:35.909Z,1.10
2018-05-06T12:01:03.520Z,1.10
2018-05-06T12:03:31.124Z,1.10
2018-05-06T12:05:58.697Z,1.00
2018-05-06T12:08:26.472Z,1.10
2018-05-06T12:10:54.063Z,1.12
2018-05-06T12:13:21.668Z,1.12
2018-05-06T12:15:49.310Z,0.70
2018-05-06T12:18:16.908Z,0.80
2018-05-06T12:20:44.487Z,0.82
2018-05-06T12:23:13.780Z,0.80
2018-05-06T12:25:42.130Z,0.77
2018-05-06T12:28:09.940Z,1.10
2018-05-06T12:30:37.496Z,0.85
2018-05-06T12:33:06.035Z,0.90
2018-05-06T12:35:33.822Z,0.90
2018-05-06T12:38:02.229Z,1.10
2018-05-06T12:40:30.607Z,0.90
2018-05-06T12:42:58.184Z,0.82
2018-05-06T12:45:25.812Z,0.88
2018-05-06T12:47:53.424Z,0.80
2018-05-06T12:50:21.050Z,1.08
2018-05-06T12:52:49.409Z,0.93
2018-05-06T12:55:17.073Z,0.90
2018-05-06T12:57:44.670Z,1.10
2018-05-06T13:00:12.462Z,1.10
2018-05-06T13:02:40.031Z,0.90
2018-05-06T13:05:07.639Z,1.20
2018-05-06T13:07:36.006Z,1.02
2018-05-06T13:10:03.711Z,0.90
2018-05-06T13:12:31.261Z,0.98
2018-05-06T13:14:58.832Z,1.08
2018-05-06T13:17:26.434Z,0.98
2018-05-06T13:19:54.065Z,1.00
2018-05-06T13:22:22.332Z,0.98
2018-05-06T13:24:49.988Z,1.15
2018-05-06T13:27:17.568Z,1.08
2018-05-06T13:29:45.153Z,1.02
2018-05-06T13:32:12.721Z,1.40
2018-05-06T13:34:41.850Z,1.50
2018-05-06T13:37:09.416Z,0.93
2018-05-06T13:39:37.262Z,1.02
2018-05-06T13:42:05.062Z,1.20
2018-05-06T13:44:32.627Z,1.67
2018-05-06T13:47:00.205Z,1.90
2018-05-06T13:49:27.861Z,1.20
2018-05-06T13:51:55.444Z,1.40
2018-05-06T13:54:23.034Z,1.30
2018-05-06T13:56:51.381Z,1.30
2018-05-06T13:59:18.977Z,1.20
2018-05-06T14:01:46.747Z,1.00
2018-05-06T14:04:14.500Z,1.30
2018-05-06T14:06:42.094Z,1.00
2018-05-06T14:09:09.849Z,1.20
2018-05-06T14:11:37.677Z,1.17
2018-05-06T14:14:05.989Z,1.12
2018-05-06T14:16:33.574Z,1.00
2018-05-06T14:19:01.317Z,1.37
2018-05-06T14:21:29.060Z,1.00
2018-05-06T14:23:57.610Z,1.52
2018-05-06T14:26:25.230Z,1.45
2018-05-06T14:28:52.813Z,0.98
2018-05-06T14:31:20.427Z,1.12
2018-05-06T14:33:47.994Z,1.12
2018-05-06T14:36:15.614Z,1.00
2018-05-06T14:38:43.212Z,1.00
2018-05-06T14:41:10.777Z,1.02
2018-05-06T14:43:38.403Z,1.00
2018-05-06T14:46:05.995Z,1.20
2018-05-06T14:48:33.833Z,1.05
2018-05-06T14:51:01.494Z,1.17
2018-05-06T14:53:29.871Z,0.90
2018-05-06T14:55:57.484Z,1.08
2018-05-06T14:58:25.057Z,1.02
2018-05-06T15:00:52.625Z,1.00
2018-05-06T15:03:20.549Z,1.15
2018-05-06T15:05:48.143Z,1.23
2018-05-06T15:08:15.736Z,1.25
2018-05-06T15:10:44.075Z,1.37
2018-05-06T15:13:11.821Z,1.10
2018-05-06T15:15:39.430Z,1.12
2018-05-06T15:18:07.025Z,1.30
2018-05-06T15:20:34.623Z,1.17
2018-05-06T15:23:02.386Z,1.05
2018-05-06T15:25:30.016Z,1.12
2018-05-06T15:27:57.597Z,1.17
2018-05-06T15:30:25.233Z,1.27
2018-05-06T15:32:53.040Z,0.93
2018-05-06T15:35:20.623Z,1.40
2018-05-06T15:37:48.419Z,1.05
2018-05-06T15:40:15.993Z,1.50
2018-05-06T15:42:43.583Z,0.93
2018-05-06T15:45:11.177Z,1.20
2018-05-06T15:47:38.789Z,1.37
2018-05-06T15:50:06.377Z,1.00
2018-05-06T15:52:33.951Z,1.12
2018-05-06T15:55:01.519Z,1.20
2018-05-06T15:57:29.830Z,1.20
2018-05-06T15:59:57.449Z,1.27
2018-05-06T16:02:58.360Z,1.27
2018-05-06T16:05:26.348Z,1.33
2018-05-06T16:07:53.975Z,1.30
2018-05-06T16:10:21.574Z,1.05
2018-05-06T16:12:49.178Z,1.15
2018-05-06T16:15:16.833Z,1.42
2018-05-06T16:17:44.448Z,1.25
2018-05-06T16:20:13.535Z,1.00
2018-05-06T16:22:41.196Z,0.95
2018-05-06T16:25:08.775Z,1.25
2018-05-06T16:27:37.146Z,1.00
2018-05-06T16:30:04.728Z,1.10
2018-05-06T16:32:32.299Z,1.10
2018-05-06T16:34:59.892Z,1.25
2018-05-06T16:37:27.486Z,1.17
2018-05-06T16:39:55.852Z,1.10
2018-05-06T16:42:25.148Z,1.23
2018-05-06T16:44:52.724Z,1.27
2018-05-06T16:47:20.333Z,0.90
2018-05-06T16:49:47.965Z,1.23
2018-05-06T16:52:15.576Z,0.90
2018-05-06T16:54:43.190Z,1.20
2018-05-06T16:57:11.795Z,1.00
2018-05-06T16:59:39.350Z,0.90
2018-05-06T17:02:06.966Z,0.90
2018-05-06T17:04:34.673Z,1.10
2018-05-06T17:07:02.299Z,0.90
2018-05-06T17:09:30.441Z,1.10
2018-05-06T17:11:58.112Z,1.30
2018-05-06T17:14:25.846Z,1.20
2018-05-06T17:16:53.443Z,1.30
2018-05-06T17:19:21.864Z,1.07
2018-05-06T17:21:50.269Z,1.30
2018-05-06T17:24:18.024Z,1.10
2018-05-06T17:26:45.786Z,1.03
2018-05-06T17:29:13.403Z,1.33
2018-05-06T17:31:41.037Z,1.40
2018-05-06T17:34:08.613Z,1.30
2018-05-06T17:36:36.199Z,1.10
2018-05-06T17:39:05.357Z,1.67
2018-05-06T17:41:33.404Z,1.63
2018-05-06T17:44:00.987Z,1.20
2018-05-06T17:46:28.616Z,1.10
2018-05-06T17:48:56.236Z,1.30
2018-05-06T17:51:23.846Z,1.30
2018-05-06T17:53:51.612Z,1.37
2018-05-06T17:56:19.189Z,1.30
2018-05-06T17:58:46.782Z,1.50
2018-05-06T18:01:14.412Z,1.60
2018-05-06T18:03:42.450Z,1.30
2018-05-06T18:06:10.078Z,1.40
2018-05-06T18:08:37.639Z,1.60
2018-05-06T18:11:06.120Z,1.23
2018-05-06T18:13:33.868Z,1.50
2018-05-06T18:16:01.442Z,1.23
2018-05-06T18:18:30.038Z,1.30
2018-05-06T18:20:57.646Z,1.40
2018-05-06T18:23:25.488Z,1.50
2018-05-06T18:25:53.068Z,1.30
2018-05-06T18:28:20.682Z,1.30
2018-05-06T18:30:48.361Z,1.63
2018-05-06T18:33:16.002Z,1.30
2018-05-06T18:35:43.647Z,1.40
2018-05-06T18:38:12.027Z,1.50
2018-05-06T18:40:43.074Z,1.50
2018-05-06T18:43:10.764Z,1.40
2018-05-06T18:45:38.375Z,1.50
2018-05-06T18:48:06.041Z,1.30
2018-05-06T18:50:33.844Z,1.40
2018-05-06T18:53:01.507Z,1.30
2018-05-06T18:55:29.251Z,1.13
2018-05-06T18:57:56.952Z,1.50
2018-05-06T19:00:24.617Z,1.50
2018-05-06T19:02:52.247Z,1.40
2018-05-06T19:05:20.122Z,1.20
2018-05-06T19:07:47.750Z,1.40
2018-05-06T19:10:15.703Z,1.30
2018-05-06T19:15:36.405Z,1.30
2018-05-06T19:18:04.780Z,1.30
2018-05-06T19:20:32.503Z,1.50
2018-05-06T19:23:00.177Z,1.33
2018-05-06T19:25:27.802Z,1.40
2018-05-06T19:27:55.420Z,1.63
2018-05-06T19:30:23.327Z,1.40
2018-05-06T19:32:51.021Z,1.50
2018-05-06T19:35:18.551Z,1.27
2018-05-06T19:37:46.220Z,1.50
2018-05-06T19:40:13.850Z,1.30
2018-05-06T19:42:42.289Z,1.43
2018-05-06T19:45:09.917Z,1.93
2018-05-06T19:47:37.509Z,1.80
2018-05-06T19:50:05.284Z,1.83
2018-05-06T19:52:32.876Z,1.83
2018-05-06T19:55:00.515Z,1.60
2018-05-06T19:57:28.099Z,1.87
2018-05-06T19:59:56.463Z,1.47
2018-05-06T20:02:24.227Z,1.70
2018-05-06T20:04:52.631Z,1.60
2018-05-06T20:07:20.439Z,1.80
2018-05-06T20:09:48.789Z,1.70
2018-05-06T20:12:16.453Z,1.80
2018-05-06T20:14:44.105Z,1.70
2018-05-06T20:17:11.772Z,1.30
2018-05-06T20:19:39.447Z,1.60
2018-05-06T20:22:07.037Z,2.20
2018-05-06T20:24:34.692Z,1.70
2018-05-06T20:27:02.493Z,1.90
2018-05-06T20:29:30.107Z,1.67
2018-05-06T20:31:57.683Z,1.70
2018-05-06T20:34:25.276Z,1.80
2018-05-06T20:36:52.902Z,1.73
2018-05-06T20:39:20.641Z,1.63
2018-05-06T20:41:48.221Z,1.40
2018-05-06T20:44:16.063Z,1.50
2018-05-06T20:46:43.833Z,1.20
2018-05-06T20:49:11.409Z,2.10
2018-05-06T20:51:39.355Z,2.20
2018-05-06T20:54:07.007Z,2.03
2018-05-06T20:56:34.589Z,2.00
2018-05-06T20:59:02.199Z,2.00
2018-05-06T21:01:30.516Z,1.97
2018-05-06T21:03:58.172Z,2.00
2018-05-06T21:06:25.756Z,1.90
2018-05-06T21:08:53.341Z,1.77
2018-05-06T21:11:20.941Z,2.33
2018-05-06T21:13:48.504Z,2.10
2018-05-06T21:16:16.117Z,1.90
2018-05-06T21:18:43.729Z,2.00
2018-05-06T21:21:11.319Z,1.80
2018-05-06T21:23:38.924Z,2.10
2018-05-06T21:26:07.306Z,2.10
2018-05-06T21:28:34.990Z,2.00
2018-05-06T21:31:02.670Z,1.60
2018-05-06T21:33:30.303Z,2.07
2018-05-06T21:35:57.862Z,1.87
2018-05-06T21:38:25.629Z,1.83
2018-05-06T21:40:53.218Z,1.67
2018-05-06T21:43:20.895Z,1.97
2018-05-06T21:45:48.449Z,2.00
2018-05-06T21:48:16.055Z,1.90
2018-05-06T21:50:44.573Z,1.97
2018-05-06T21:53:12.178Z,1.60
2018-05-06T21:55:40.579Z,1.80
2018-05-06T21:58:08.156Z,1.97
2018-05-06T22:00:35.780Z,1.70
2018-05-06T22:03:03.400Z,2.00
2018-05-06T22:05:30.961Z,2.03
2018-05-06T22:07:58.531Z,1.60
2018-05-06T22:10:26.131Z,1.70
2018-05-06T22:12:53.716Z,1.60
2018-05-06T22:15:21.318Z,1.83
2018-05-06T22:17:48.911Z,1.80
2018-05-06T22:20:16.455Z,1.77
2018-05-06T22:22:44.057Z,1.50
2018-05-06T22:25:11.688Z,1.67
2018-05-06T22:27:40.038Z,1.70
2018-05-06T22:30:07.618Z,1.60
2018-05-06T22:32:36.154Z,1.80
2018-05-06T22:35:03.705Z,1.60
2018-05-06T22:37:31.261Z,1.80
2018-05-06T22:39:59.110Z,1.63
2018-05-06T22:42:26.660Z,1.70
2018-05-06T22:44:55.056Z,1.70
2018-05-06T22:47:22.758Z,1.50
2018-05-06T22:49:50.809Z,1.67
2018-05-06T22:52:18.361Z,1.63
2018-05-06T22:54:45.957Z,1.87
2018-05-06T22:57:13.533Z,2.17
2018-05-06T22:59:41.391Z,1.70
2018-05-06T23:02:09.741Z,1.43
2018-05-06T23:04:37.311Z,1.50
2018-05-06T23:07:05.052Z,1.57
2018-05-06T23:09:32.620Z,1.40
2018-05-06T23:12:00.393Z,1.67
2018-05-06T23:14:27.964Z,1.90
2018-05-06T23:16:55.687Z,1.67
2018-05-06T23:19:23.293Z,1.60
2018-05-06T23:21:50.915Z,2.00
2018-05-06T23:24:18.478Z,1.80
2018-05-06T23:26:46.060Z,1.80
2018-05-06T23:29:13.966Z,1.70
2018-05-06T23:31:41.475Z,1.70
2018-05-06T23:34:09.053Z,1.50
2018-05-06T23:36:36.660Z,1.50
2018-05-06T23:39:04.417Z,1.67
2018-05-06T23:41:32.780Z,1.37
2018-05-06T23:44:00.624Z,1.33
2018-05-06T23:46:28.171Z,1.50
2018-05-06T23:48:55.738Z,1.70
2018-05-06T23:51:23.318Z,1.40
2018-05-06T23:53:50.874Z,1.50
2018-05-06T23:56:18.590Z,1.50
2018-05-06T23:58:46.151Z,1.50
